MFDO2: Hudson Lake

Data processed at Sat Dec 09 2017 23:01


All information presented herein is the property of the government of the United States of America and may be revised or deleted at any time without prior notice.
Dissemination of this information without the expressed written consent of the Public Affairs Office, Tulsa District U.S. Army Corps of Engineers is strictly prohibited.
These data are gathered electronically and, as presented, have not undergone any form of quality control. These data are not guaranteed to be valid or correct.
Go to home page.
Go to station list.

Upstream stations:

Downstream station:
Previous Day
Next Day
Current Day
    
SHEF ID:       MFDO2     Lake Hudson near Locust Grove, O
STATION TYPE:  RESERVOIR

               PRECIP ELEVATION   STORAGE   TW-ELEV    INFLOW   RELEASE  AIR-TEMP  WIND-DIRWIND-SPEED REL-HUMID SOLAR-RAD   VOLTAGE  BAT-LOAD
                   in        ft     ac-ft        ft       cfs       cfs         F       deg       mph         %      W/m2      volt      volt
              Ccp-Rev   Ccp-Rev   Ccp-Rev   Ccp-Rev  Regi-Rev  Regi-Rev   Ccp-Rev   Ccp-Rev   Ccp-Rev   Ccp-Rev   Ccp-Rev   Ccp-Rev   Ccp-Rev
(US/Central)
12/07 00:00      0.00    619.93    210522    558.13       969         0     37.80    298.30      3.90     68.40      0.00     12.33     11.93
12/07 01:00      0.00    619.95    210744    558.03      1131         0     38.48    330.20      6.30     56.09      0.00     12.32     11.93
12/07 02:00      0.00    620.00    211300    557.95      1293         0     36.45    322.80      7.40     63.17      0.00     12.31     11.93
12/07 03:00      0.00    620.02    211528    557.88      2303         0     34.02    329.20     10.00     60.29      0.00     12.30     11.93
12/07 04:00      0.00    619.95    210744    560.14      2100      2430     32.04    334.90      9.00     54.04      0.00     12.29     11.93
12/07 05:00      0.00    619.99    211189    561.96      1938      8640     30.40    329.00      8.00     58.65      0.00     12.29     11.93
12/07 06:00      0.00    620.01    211414    561.61      1776      5400     28.13    321.00      9.30     61.64      0.00     12.28     11.93
12/07 07:00      0.00    620.01    211414    560.30      1614         0     26.33    320.00      9.10     64.29      0.00     12.27     11.93
12/07 08:00      0.00    620.02    211528    559.84       335         0     25.27    321.10      7.60     66.42     12.90     12.41     11.86
12/07 09:00      0.00    620.00    211300    559.52         0         0     25.25    322.00      8.70     66.18    115.40     12.85     12.01
12/07 10:00      0.00    619.97    210967    559.58         0       270     26.40    326.80      9.60     60.03    272.00     13.10     12.41
12/07 11:00      0.00    619.93    210522    559.96         0      2160     28.15    337.80      8.10     55.91    247.10     12.79     12.65
12/07 12:00      0.00    619.91    210300    559.37         0         0     29.61    330.60      7.60     48.74    251.40     12.66     12.41
12/07 13:00      0.00    619.89    210078    559.05         0         0     31.42    340.60      8.30     46.21    480.70     12.60     12.25
12/07 14:00      0.00    619.87    209856    558.82         0         0     33.19    339.00      8.00     42.56     44.20     12.56     12.17
12/07 15:00      0.00    619.84    209522    558.64         0         0     34.41    331.60      7.90     38.89      8.70     12.52     12.17
12/07 16:00      0.00    619.79    208967    559.12         0      1080     35.10    331.20      7.60     37.31      2.10     12.48     12.09
12/07 17:00      0.00    619.75    208522    558.73       163         0     34.95    326.60      6.20     37.93      0.80     12.44     12.09
12/07 18:00      0.00    619.77    208745    558.50       233         0     33.62    319.40      3.90     41.07      0.00     12.40     12.09
12/07 19:00      0.00    619.82    209300    558.33       280         0     32.20    312.50      3.40     46.04      0.00     12.37     12.01
12/07 20:00      0.00    619.87    209856    558.20       315         0     30.88    312.40      2.90     52.90      0.00     12.34     12.01
12/07 21:00      0.00    619.89    210078    558.09       315         0     29.70    253.10      1.40     57.56      0.00     12.32     11.93
12/07 22:00      0.00    619.91    210300    558.00       152         0     26.44    184.20      4.10     56.03      0.00     12.29     11.93
12/07 23:00      0.00    619.93    210522    557.91        82         0     25.63    235.90      1.40     71.30      0.00     12.28     11.93